createdAt,value
2022-12-22T00:00:37.824Z,80.79
2022-12-22T00:01:37.920Z,80.79
2022-12-22T00:02:38.022Z,80.79
2022-12-22T00:03:37.936Z,80.68
2022-12-22T00:04:37.777Z,80.79
2022-12-22T00:05:37.752Z,80.65
2022-12-22T00:06:37.732Z,80.54
2022-12-22T00:07:37.753Z,80.65
2022-12-22T00:08:37.718Z,80.51
2022-12-22T00:09:37.698Z,80.40
2022-12-22T00:10:37.691Z,80.40
2022-12-22T00:11:37.693Z,80.40
2022-12-22T00:12:37.675Z,80.40
2022-12-22T00:13:37.644Z,80.40
2022-12-22T00:14:37.636Z,80.30
2022-12-22T00:15:37.644Z,80.40
2022-12-22T00:16:37.724Z,80.30
2022-12-22T00:17:37.588Z,80.40
2022-12-22T00:18:37.583Z,80.30
2022-12-22T00:19:37.563Z,80.30
2022-12-22T00:20:37.541Z,80.40
2022-12-22T00:21:37.537Z,80.30
2022-12-22T00:22:37.543Z,80.40
2022-12-22T00:23:37.536Z,80.30
2022-12-22T00:24:37.504Z,80.30
2022-12-22T00:25:37.500Z,80.26
2022-12-22T00:26:37.462Z,80.30
2022-12-22T00:27:40.112Z,80.30
2022-12-22T00:28:38.454Z,80.16
2022-12-22T00:29:37.426Z,80.30
2022-12-22T00:30:37.452Z,80.16
2022-12-22T00:31:37.397Z,80.16
2022-12-22T00:32:37.384Z,80.05
2022-12-22T00:33:37.376Z,79.47
2022-12-22T00:34:37.357Z,79.26
2022-12-22T00:35:37.349Z,79.22
2022-12-22T00:36:37.325Z,79.16
2022-12-22T00:37:37.313Z,79.02
2022-12-22T00:38:37.294Z,78.98
2022-12-22T00:39:37.320Z,79.02
2022-12-22T00:40:37.271Z,78.98
2022-12-22T00:41:37.261Z,78.74
2022-12-22T00:42:37.243Z,78.63
2022-12-22T00:43:37.259Z,78.39
2022-12-22T00:44:37.669Z,78.39
2022-12-22T00:45:37.327Z,78.28
2022-12-22T00:46:37.194Z,78.18
2022-12-22T00:47:37.178Z,78.14
2022-12-22T00:48:37.164Z,78.08
2022-12-22T00:49:37.149Z,78.05
2022-12-22T00:50:37.139Z,77.94
2022-12-22T00:51:37.124Z,77.91
2022-12-22T00:52:37.105Z,77.80
2022-12-22T00:53:37.108Z,77.66
2022-12-22T00:54:37.098Z,77.56
2022-12-22T00:55:37.103Z,77.39
2022-12-22T00:56:37.054Z,77.39
2022-12-22T00:57:37.044Z,77.39
2022-12-22T00:58:37.023Z,77.49
2022-12-22T00:59:37.010Z,77.42
2022-12-22T01:00:36.990Z,77.53
2022-12-22T01:01:37.172Z,77.42
2022-12-22T01:02:37.129Z,77.53
2022-12-22T01:03:37.047Z,77.42
2022-12-22T01:04:36.936Z,77.39
2022-12-22T01:05:36.928Z,77.28
2022-12-22T01:06:36.928Z,77.25
2022-12-22T01:07:36.897Z,77.15
2022-12-22T01:08:36.890Z,76.94
2022-12-22T01:09:36.875Z,77.11
2022-12-22T01:10:36.857Z,77.01
2022-12-22T01:11:36.880Z,76.94
2022-12-22T01:12:36.833Z,76.90
2022-12-22T01:13:36.825Z,76.90
2022-12-22T01:14:36.819Z,76.80
2022-12-22T01:15:36.914Z,76.76
2022-12-22T01:16:36.857Z,76.76
2022-12-22T01:17:36.772Z,76.76
2022-12-22T01:18:36.758Z,76.53
2022-12-22T01:19:36.737Z,76.42
2022-12-22T01:20:36.732Z,76.42
2022-12-22T01:21:36.712Z,76.32
2022-12-22T01:22:36.699Z,76.32
2022-12-22T01:23:36.687Z,76.21
2022-12-22T01:24:36.665Z,76.21
2022-12-22T01:25:36.662Z,76.21
2022-12-22T01:26:36.654Z,76.11
2022-12-22T01:27:36.659Z,76.01
2022-12-22T01:28:36.613Z,76.11
2022-12-22T01:29:36.598Z,76.21
2022-12-22T01:30:36.663Z,76.11
2022-12-22T01:31:36.585Z,76.11
2022-12-22T01:32:36.557Z,76.01
2022-12-22T01:33:36.551Z,75.90
2022-12-22T01:34:36.539Z,75.90
2022-12-22T01:35:36.521Z,75.81
2022-12-22T01:36:36.522Z,75.67
2022-12-22T01:37:36.506Z,75.67
2022-12-22T01:38:36.480Z,75.60
2022-12-22T01:39:36.467Z,75.67
2022-12-22T01:40:36.452Z,75.70
2022-12-22T01:41:36.439Z,75.56
2022-12-22T01:42:36.436Z,75.60
2022-12-22T01:43:36.435Z,75.70
2022-12-22T01:44:36.396Z,75.81
2022-12-22T01:45:36.387Z,75.60
2022-12-22T01:46:36.445Z,75.60
2022-12-22T01:47:36.362Z,75.70
2022-12-22T01:48:36.349Z,75.70
2022-12-22T01:49:36.684Z,75.60
2022-12-22T01:50:36.381Z,75.60
2022-12-22T01:51:36.303Z,75.81
2022-12-22T01:52:36.294Z,75.70
2022-12-22T01:53:36.281Z,75.84
2022-12-22T01:54:36.259Z,75.84
2022-12-22T01:55:36.248Z,75.94
2022-12-22T01:56:36.239Z,75.94
2022-12-22T01:57:36.221Z,75.94
2022-12-22T01:58:36.204Z,76.04
2022-12-22T01:59:36.274Z,75.94
2022-12-22T02:00:36.184Z,76.04
2022-12-22T02:01:36.260Z,76.15
2022-12-22T02:02:36.330Z,75.94
2022-12-22T02:03:36.233Z,76.01
2022-12-22T02:04:36.129Z,76.04
2022-12-22T02:05:36.118Z,75.90
2022-12-22T02:06:36.104Z,76.01
2022-12-22T02:07:36.089Z,75.94
2022-12-22T02:08:36.065Z,76.01
2022-12-22T02:09:36.092Z,75.87
2022-12-22T02:10:36.045Z,75.67
2022-12-22T02:11:36.034Z,75.67
2022-12-22T02:12:36.018Z,75.77
2022-12-22T02:13:36.010Z,75.77
2022-12-22T02:14:36.005Z,75.77
2022-12-22T02:15:36.072Z,75.97
2022-12-22T02:16:36.117Z,75.67
2022-12-22T02:17:35.964Z,75.77
2022-12-22T02:18:35.940Z,75.90
2022-12-22T02:19:35.934Z,75.87
2022-12-22T02:20:35.915Z,75.87
2022-12-22T02:21:35.902Z,75.77
2022-12-22T02:22:35.883Z,75.77
2022-12-22T02:23:35.870Z,75.77
2022-12-22T02:24:35.863Z,75.77
2022-12-22T02:25:35.849Z,75.73
2022-12-22T02:26:35.831Z,75.63
2022-12-22T02:27:35.819Z,75.63
2022-12-22T02:28:35.812Z,75.52
2022-12-22T02:29:35.788Z,75.52
2022-12-22T02:30:35.774Z,75.52
2022-12-22T02:31:35.847Z,75.59
2022-12-22T02:32:35.742Z,75.49
2022-12-22T02:33:35.738Z,75.63
2022-12-22T02:34:35.717Z,75.63
2022-12-22T02:35:35.772Z,75.67
2022-12-22T02:36:35.689Z,75.73
2022-12-22T02:37:35.677Z,75.73
2022-12-22T02:38:35.671Z,75.84
2022-12-22T02:39:35.652Z,75.84
2022-12-22T02:40:41.249Z,75.97
2022-12-22T02:41:36.653Z,75.87
2022-12-22T02:42:35.605Z,75.87
2022-12-22T02:43:35.594Z,75.84
2022-12-22T02:44:35.586Z,75.84
2022-12-22T02:45:35.574Z,75.70
2022-12-22T02:46:35.698Z,75.59
2022-12-22T02:47:35.583Z,75.70
2022-12-22T02:48:35.538Z,75.59
2022-12-22T02:49:35.548Z,75.70
2022-12-22T02:50:35.520Z,75.70
2022-12-22T02:51:35.523Z,76.11
2022-12-22T02:52:35.476Z,76.04
2022-12-22T02:53:35.475Z,76.14
2022-12-22T02:54:35.796Z,76.25
2022-12-22T02:55:35.441Z,76.66
2022-12-22T02:56:35.436Z,77.31
2022-12-22T02:57:35.410Z,77.21
2022-12-22T02:58:35.396Z,77.55
2022-12-22T02:59:35.385Z,77.45
2022-12-22T03:00:35.365Z,77.45
2022-12-22T03:01:35.537Z,77.97
2022-12-22T03:02:35.689Z,77.76
2022-12-22T03:03:35.548Z,78.17
2022-12-22T03:04:35.308Z,78.21
2022-12-22T03:05:35.298Z,78.41
2022-12-22T03:06:35.279Z,78.21
2022-12-22T03:07:35.276Z,77.69
2022-12-22T03:08:35.251Z,77.45
2022-12-22T03:09:35.238Z,76.46
2022-12-22T03:10:35.228Z,76.79
2022-12-22T03:11:35.218Z,77.21
2022-12-22T03:12:35.209Z,77.21
2022-12-22T03:13:35.191Z,77.31
2022-12-22T03:14:35.174Z,77.31
2022-12-22T03:15:35.158Z,77.31
2022-12-22T03:16:35.198Z,77.21
2022-12-22T03:17:35.141Z,77.11
2022-12-22T03:18:35.125Z,77.42
2022-12-22T03:19:35.129Z,77.55
2022-12-22T03:20:35.101Z,77.55
2022-12-22T03:21:35.076Z,77.51
2022-12-22T03:22:35.068Z,77.11
2022-12-22T03:23:35.055Z,77.21
2022-12-22T03:24:35.043Z,77.83
2022-12-22T03:25:35.041Z,77.25
2022-12-22T03:26:35.016Z,77.21
2022-12-22T03:27:35.031Z,77.00
2022-12-22T03:28:34.997Z,77.28
2022-12-22T03:29:34.969Z,77.00
2022-12-22T03:30:34.962Z,77.17
2022-12-22T03:31:35.076Z,77.28
2022-12-22T03:32:34.954Z,76.97
2022-12-22T03:33:34.915Z,76.86
2022-12-22T03:34:34.901Z,77.03
2022-12-22T03:35:34.921Z,76.97
2022-12-22T03:36:34.877Z,77.03
2022-12-22T03:37:34.853Z,77.34
2022-12-22T03:38:34.849Z,77.45
2022-12-22T03:39:34.834Z,77.79
2022-12-22T03:40:34.824Z,77.79
2022-12-22T03:41:34.803Z,77.28
2022-12-22T03:42:34.789Z,77.55
2022-12-22T03:43:34.783Z,77.14
2022-12-22T03:44:34.765Z,76.69
2022-12-22T03:45:34.772Z,78.09
2022-12-22T03:46:34.784Z,78.03
2022-12-22T03:47:34.724Z,78.30
2022-12-22T03:48:34.724Z,79.70
2022-12-22T03:49:34.705Z,80.01
2022-12-22T03:50:34.715Z,81.45
2022-12-22T03:51:34.697Z,82.57
2022-12-22T03:52:34.654Z,81.92
2022-12-22T03:53:34.649Z,83.09
2022-12-22T03:54:34.627Z,81.96
2022-12-22T03:55:34.610Z,82.95
2022-12-22T03:56:34.610Z,82.75
2022-12-22T03:57:34.590Z,83.87
2022-12-22T03:58:34.579Z,85.11
2022-12-22T03:59:34.592Z,85.78
2022-12-22T04:00:34.548Z,87.22
2022-12-22T04:01:34.691Z,87.32
2022-12-22T04:02:34.609Z,87.43
2022-12-22T04:03:34.591Z,87.53
2022-12-22T04:04:34.494Z,87.53
2022-12-22T04:05:34.487Z,87.02
2022-12-22T04:06:34.465Z,87.26
2022-12-22T04:07:34.489Z,87.67
2022-12-22T04:08:34.446Z,86.24
2022-12-22T04:09:34.435Z,87.05
2022-12-22T04:10:34.419Z,86.54
2022-12-22T04:11:34.408Z,86.65
2022-12-22T04:12:34.380Z,87.37
2022-12-22T04:13:34.372Z,86.65
2022-12-22T04:14:35.048Z,87.37
2022-12-22T04:15:34.358Z,86.13
2022-12-22T04:16:34.445Z,84.74
2022-12-22T04:17:34.341Z,84.01
2022-12-22T04:18:34.310Z,85.00
2022-12-22T04:19:34.291Z,86.48
2022-12-22T04:20:34.286Z,85.41
2022-12-22T04:21:34.263Z,85.41
2022-12-22T04:22:34.251Z,85.97
2022-12-22T04:23:34.256Z,85.41
2022-12-22T04:24:34.233Z,86.17
2022-12-22T04:25:34.210Z,85.52
2022-12-22T04:26:34.213Z,87.46
2022-12-22T04:27:34.182Z,87.16
2022-12-22T04:28:34.206Z,88.18
2022-12-22T04:29:34.154Z,89.31
2022-12-22T04:30:34.140Z,89.89
2022-12-22T04:31:34.155Z,90.40
2022-12-22T04:32:34.114Z,89.99
2022-12-22T04:33:34.104Z,88.24
2022-12-22T04:34:34.090Z,89.78
2022-12-22T04:35:34.074Z,88.82
2022-12-22T04:36:34.057Z,88.41
2022-12-22T04:37:34.038Z,88.92
2022-12-22T04:38:34.024Z,87.70
2022-12-22T04:39:34.045Z,87.22
2022-12-22T04:40:33.999Z,87.32
2022-12-22T04:41:33.989Z,85.47
2022-12-22T04:42:33.972Z,85.47
2022-12-22T04:43:33.965Z,84.45
2022-12-22T04:44:33.950Z,84.39
2022-12-22T04:45:33.986Z,83.22
2022-12-22T04:46:33.978Z,83.87
2022-12-22T04:47:33.922Z,83.22
2022-12-22T04:48:33.899Z,85.21
2022-12-22T04:49:33.880Z,84.18
2022-12-22T04:50:33.857Z,82.54
2022-12-22T04:51:33.852Z,82.23
2022-12-22T04:52:33.833Z,82.37
2022-12-22T04:53:33.837Z,81.00
2022-12-22T04:54:33.808Z,81.41
2022-12-22T04:55:33.824Z,80.52
2022-12-22T04:56:33.781Z,80.18
2022-12-22T04:57:38.719Z,80.11
2022-12-22T04:58:34.792Z,81.55
2022-12-22T04:59:33.737Z,80.01
2022-12-22T05:00:33.727Z,80.18
2022-12-22T05:01:33.792Z,79.91
2022-12-22T05:02:33.881Z,81.62
2022-12-22T05:03:33.759Z,80.69
2022-12-22T05:04:33.666Z,80.49
2022-12-22T05:05:33.658Z,80.49
2022-12-22T05:06:33.648Z,82.03
2022-12-22T05:07:33.632Z,80.69
2022-12-22T05:08:33.622Z,81.41
2022-12-22T05:09:33.614Z,81.16
2022-12-22T05:10:33.588Z,81.27
2022-12-22T05:11:33.599Z,81.16
2022-12-22T05:12:33.582Z,80.86
2022-12-22T05:13:33.549Z,81.99
2022-12-22T05:14:33.537Z,82.09
2022-12-22T05:15:33.536Z,82.67
2022-12-22T05:16:33.584Z,83.59
2022-12-22T05:17:33.508Z,84.92
2022-12-22T05:18:33.493Z,84.10
2022-12-22T05:19:33.483Z,85.80
2022-12-22T05:20:33.461Z,86.01
2022-12-22T05:21:33.443Z,86.22
2022-12-22T05:22:33.427Z,85.71
2022-12-22T05:23:33.419Z,85.91
2022-12-22T05:24:33.420Z,86.42
2022-12-22T05:25:35.536Z,86.22
2022-12-22T05:26:33.374Z,86.83
2022-12-22T05:27:33.392Z,87.14
2022-12-22T05:28:33.346Z,87.08
2022-12-22T05:29:33.331Z,86.05
2022-12-22T05:30:33.402Z,87.14
2022-12-22T05:31:33.310Z,86.25
2022-12-22T05:32:33.290Z,86.83
2022-12-22T05:33:33.296Z,86.93
2022-12-22T05:34:33.262Z,87.34
2022-12-22T05:35:33.251Z,86.01
2022-12-22T05:36:33.238Z,86.22
2022-12-22T05:37:33.231Z,86.36
2022-12-22T05:38:33.220Z,87.34
2022-12-22T05:39:33.201Z,87.96
2022-12-22T05:40:33.194Z,87.55
2022-12-22T05:41:33.221Z,88.84
2022-12-22T05:42:33.171Z,88.23
2022-12-22T05:43:33.173Z,88.64
2022-12-22T05:44:33.137Z,89.15
2022-12-22T05:45:33.112Z,88.12
2022-12-22T05:46:33.201Z,88.68
2022-12-22T05:47:33.096Z,88.78
2022-12-22T05:48:37.819Z,88.57
2022-12-22T05:49:33.059Z,88.68
2022-12-22T05:50:33.049Z,89.39
2022-12-22T05:51:33.036Z,88.78
2022-12-22T05:52:33.025Z,88.78
2022-12-22T05:53:33.014Z,88.10
2022-12-22T05:54:32.999Z,88.98
2022-12-22T05:55:32.980Z,87.90
2022-12-22T05:56:32.980Z,87.28
2022-12-22T05:57:32.948Z,88.21
2022-12-22T05:58:33.028Z,87.79
2022-12-22T05:59:32.949Z,89.03
2022-12-22T06:00:32.910Z,88.41
2022-12-22T06:01:32.954Z,88.21
2022-12-22T06:02:33.172Z,88.31
2022-12-22T06:03:32.998Z,88.72
2022-12-22T06:04:32.869Z,89.78
2022-12-22T06:05:32.852Z,88.92
2022-12-22T06:06:32.842Z,88.92
2022-12-22T06:07:32.819Z,88.14
2022-12-22T06:08:32.806Z,88.04
2022-12-22T06:09:32.788Z,88.31
2022-12-22T06:10:32.771Z,88.41
2022-12-22T06:11:32.777Z,88.76
2022-12-22T06:12:32.748Z,89.13
2022-12-22T06:13:32.742Z,89.75
2022-12-22T06:14:32.722Z,89.64
2022-12-22T06:15:32.825Z,90.01
2022-12-22T06:16:32.784Z,90.05
2022-12-22T06:17:32.687Z,91.22
2022-12-22T06:18:32.673Z,89.78
2022-12-22T06:19:32.661Z,89.58
2022-12-22T06:20:32.648Z,89.75
2022-12-22T06:21:32.651Z,89.17
2022-12-22T06:22:32.617Z,88.76
2022-12-22T06:23:32.602Z,88.35
2022-12-22T06:24:32.591Z,88.45
2022-12-22T06:25:32.597Z,88.70
2022-12-22T06:26:32.555Z,88.70
2022-12-22T06:27:32.549Z,87.46
2022-12-22T06:28:32.541Z,87.37
2022-12-22T06:29:32.522Z,87.98
2022-12-22T06:30:33.799Z,87.67
2022-12-22T06:31:32.589Z,88.49
2022-12-22T06:32:32.478Z,87.94
2022-12-22T06:33:32.479Z,91.47
2022-12-22T06:34:32.462Z,89.62
2022-12-22T06:35:32.438Z,89.62
2022-12-22T06:36:32.432Z,87.61
2022-12-22T06:37:32.412Z,88.53
2022-12-22T06:38:32.404Z,90.08
2022-12-22T06:39:32.388Z,87.71
2022-12-22T06:40:32.368Z,88.23
2022-12-22T06:41:32.357Z,88.18
2022-12-22T06:42:32.342Z,90.18
2022-12-22T06:43:32.335Z,87.40
2022-12-22T06:44:32.319Z,88.53
2022-12-22T06:45:32.304Z,88.12
2022-12-22T06:46:32.333Z,88.64
2022-12-22T06:47:32.303Z,87.51
2022-12-22T06:48:32.273Z,87.61
2022-12-22T06:49:32.244Z,88.53
2022-12-22T06:50:32.229Z,91.25
2022-12-22T06:51:32.219Z,87.55
2022-12-22T06:52:32.202Z,88.17
2022-12-22T06:53:32.190Z,86.79
2022-12-22T06:54:32.185Z,87.61
2022-12-22T06:55:32.176Z,88.95
2022-12-22T06:56:32.149Z,88.08
2022-12-22T06:57:32.155Z,88.59
2022-12-22T06:58:32.127Z,89.62
2022-12-22T06:59:32.112Z,90.03
2022-12-22T07:00:32.106Z,91.06
2022-12-22T07:01:32.234Z,91.12
2022-12-22T07:02:32.342Z,90.81
2022-12-22T07:03:32.161Z,91.02
2022-12-22T07:04:32.044Z,90.24
2022-12-22T07:05:32.278Z,90.14
2022-12-22T07:06:32.027Z,91.74
2022-12-22T07:07:32.003Z,90.71
2022-12-22T07:08:31.991Z,90.50
2022-12-22T07:09:32.000Z,91.53
2022-12-22T07:10:31.967Z,92.51
2022-12-22T07:11:31.957Z,92.46
2022-12-22T07:12:31.936Z,92.66
2022-12-22T07:13:32.054Z,92.46
2022-12-22T07:14:31.917Z,91.57
2022-12-22T07:15:31.896Z,93.17
2022-12-22T07:16:31.947Z,92.66
2022-12-22T07:17:31.873Z,94.20
2022-12-22T07:18:32.279Z,93.95
2022-12-22T07:19:31.875Z,94.81
2022-12-22T07:20:31.826Z,95.69
2022-12-22T07:21:31.840Z,94.77
2022-12-22T07:22:31.809Z,96.04
2022-12-22T07:23:31.789Z,95.02
2022-12-22T07:24:31.768Z,95.02
2022-12-22T07:25:31.774Z,95.23
2022-12-22T07:26:31.763Z,94.10
2022-12-22T07:27:31.742Z,94.36
2022-12-22T07:28:31.725Z,93.33
2022-12-22T07:29:31.711Z,94.40
2022-12-22T07:30:31.702Z,92.76
2022-12-22T07:31:31.748Z,93.07
2022-12-22T07:32:31.666Z,94.34
2022-12-22T07:33:31.666Z,93.42
2022-12-22T07:34:31.643Z,93.27
2022-12-22T07:35:31.653Z,93.12
2022-12-22T07:36:31.615Z,93.12
2022-12-22T07:37:31.600Z,94.45
2022-12-22T07:38:31.583Z,93.83
2022-12-22T07:39:31.576Z,93.21
2022-12-22T07:40:31.556Z,94.24
2022-12-22T07:41:31.540Z,93.52
2022-12-22T07:42:31.548Z,94.76
2022-12-22T07:43:31.508Z,93.73
2022-12-22T07:44:31.499Z,94.65
2022-12-22T07:45:31.486Z,95.47
2022-12-22T07:46:31.509Z,94.55
2022-12-22T07:47:35.281Z,94.85
2022-12-22T07:48:31.457Z,95.37
2022-12-22T07:49:31.441Z,94.34
2022-12-22T07:50:31.433Z,94.65
2022-12-22T07:51:31.431Z,95.17
2022-12-22T07:52:31.398Z,95.78
2022-12-22T07:53:31.372Z,96.09
2022-12-22T07:54:35.213Z,95.53
2022-12-22T07:55:32.373Z,96.09
2022-12-22T07:56:31.338Z,96.60
2022-12-22T07:57:31.321Z,96.50
2022-12-22T07:58:31.305Z,96.87
2022-12-22T07:59:31.492Z,95.69
2022-12-22T08:00:31.278Z,96.66
2022-12-22T08:01:31.480Z,96.45
2022-12-22T08:02:36.840Z,95.12
2022-12-22T08:03:32.268Z,95.53
2022-12-22T08:04:31.293Z,93.68
2022-12-22T08:05:31.211Z,93.99
2022-12-22T08:06:31.199Z,93.07
2022-12-22T08:07:31.207Z,93.59
2022-12-22T08:08:31.171Z,93.17
2022-12-22T08:09:31.166Z,92.25
2022-12-22T08:10:31.190Z,91.84
2022-12-22T08:11:31.134Z,91.94
2022-12-22T08:12:31.173Z,92.25
2022-12-22T08:13:31.107Z,91.22
2022-12-22T08:14:31.090Z,90.20
2022-12-22T08:15:31.080Z,91.02
2022-12-22T08:16:31.122Z,90.30
2022-12-22T08:17:31.043Z,91.12
2022-12-22T08:18:31.036Z,90.50
2022-12-22T08:19:31.020Z,90.91
2022-12-22T08:20:31.005Z,89.58
2022-12-22T08:21:31.004Z,90.71
2022-12-22T08:22:30.990Z,90.50
2022-12-22T08:23:30.996Z,90.95
2022-12-22T08:24:30.979Z,90.61
2022-12-22T08:25:30.941Z,90.87
2022-12-22T08:26:30.924Z,90.46
2022-12-22T08:27:30.914Z,91.08
2022-12-22T08:28:30.909Z,91.38
2022-12-22T08:29:30.899Z,91.49
2022-12-22T08:30:30.875Z,90.67
2022-12-22T08:31:30.911Z,91.53
2022-12-22T08:32:30.850Z,90.81
2022-12-22T08:33:30.840Z,89.69
2022-12-22T08:34:30.827Z,90.61
2022-12-22T08:35:30.804Z,90.09
2022-12-22T08:36:30.789Z,90.26
2022-12-22T08:37:30.783Z,89.54
2022-12-22T08:38:30.770Z,91.02
2022-12-22T08:39:30.781Z,91.59
2022-12-22T08:40:30.744Z,90.91
2022-12-22T08:41:30.725Z,90.56
2022-12-22T08:42:30.712Z,92.10
2022-12-22T08:43:30.695Z,92.31
2022-12-22T08:44:30.681Z,93.44
2022-12-22T08:45:30.668Z,91.75
2022-12-22T08:46:30.708Z,91.90
2022-12-22T08:47:30.688Z,92.68
2022-12-22T08:48:30.629Z,93.74
2022-12-22T08:49:30.623Z,93.23
2022-12-22T08:50:30.604Z,92.82
2022-12-22T08:51:30.592Z,92.61
2022-12-22T08:52:30.581Z,93.74
2022-12-22T08:54:03.225Z,93.54
2022-12-22T08:54:30.558Z,94.37
2022-12-22T08:55:30.558Z,93.15
2022-12-22T08:56:30.524Z,93.08
2022-12-22T08:57:30.511Z,92.36
2022-12-22T08:58:30.493Z,94.32
2022-12-22T08:59:30.480Z,94.52
2022-12-22T09:00:30.532Z,94.36
2022-12-22T09:01:30.616Z,93.49
2022-12-22T09:02:30.585Z,95.86
2022-12-22T09:03:30.514Z,95.34
2022-12-22T09:04:30.763Z,94.83
2022-12-22T09:05:30.404Z,93.86
2022-12-22T09:06:34.781Z,94.99
2022-12-22T09:07:31.402Z,95.70
2022-12-22T09:08:30.358Z,95.29
2022-12-22T09:09:30.351Z,94.33
2022-12-22T09:10:30.327Z,93.41
2022-12-22T09:11:30.335Z,95.70
2022-12-22T09:12:30.316Z,94.99
2022-12-22T09:13:30.310Z,94.99
2022-12-22T09:14:30.277Z,94.17
2022-12-22T09:15:30.268Z,95.09
2022-12-22T09:16:30.335Z,95.09
2022-12-22T09:17:30.235Z,94.78
2022-12-22T09:18:30.234Z,92.83
2022-12-22T09:19:30.212Z,94.27
2022-12-22T09:20:30.194Z,92.74
2022-12-22T09:21:30.179Z,90.69
2022-12-22T09:22:30.164Z,90.36
2022-12-22T09:23:30.152Z,90.56
2022-12-22T09:24:30.212Z,90.93
2022-12-22T09:25:30.152Z,88.82
2022-12-22T09:26:30.107Z,87.70
2022-12-22T09:27:30.121Z,87.79
2022-12-22T09:28:30.093Z,87.38
2022-12-22T09:29:30.075Z,86.66
2022-12-22T09:30:30.067Z,85.27
2022-12-22T09:31:30.087Z,84.45
2022-12-22T09:32:30.029Z,85.27
2022-12-22T09:33:30.013Z,84.00
2022-12-22T09:34:30.000Z,83.63
2022-12-22T09:35:29.989Z,82.54
2022-12-22T09:36:29.979Z,82.60
2022-12-22T09:37:29.963Z,82.70
2022-12-22T09:38:29.948Z,82.09
2022-12-22T09:39:29.931Z,80.90
2022-12-22T09:40:29.918Z,81.06
2022-12-22T09:41:29.906Z,81.27
2022-12-22T09:42:29.896Z,80.69
2022-12-22T09:43:29.921Z,80.65
2022-12-22T09:44:29.868Z,80.04
2022-12-22T09:45:29.974Z,79.97
2022-12-22T09:46:29.984Z,79.97
2022-12-22T09:47:29.820Z,80.04
2022-12-22T09:48:29.805Z,80.69
2022-12-22T09:49:29.798Z,80.18
2022-12-22T09:50:29.790Z,80.28
2022-12-22T09:51:29.775Z,80.24
2022-12-22T09:52:29.757Z,80.18
2022-12-22T09:53:29.747Z,80.14
2022-12-22T09:54:29.735Z,80.07
2022-12-22T09:55:29.715Z,80.04
2022-12-22T09:56:29.711Z,81.20
2022-12-22T09:57:29.686Z,80.55
2022-12-22T09:58:29.689Z,80.45
2022-12-22T09:59:29.685Z,80.04
2022-12-22T10:00:29.644Z,80.58
2022-12-22T10:01:29.783Z,80.96
2022-12-22T10:02:29.797Z,81.27
2022-12-22T10:03:29.635Z,81.99
2022-12-22T10:04:29.595Z,82.50
2022-12-22T10:05:29.582Z,82.60
2022-12-22T10:06:29.568Z,82.26
2022-12-22T10:07:29.576Z,81.43
2022-12-22T10:08:29.540Z,81.95
2022-12-22T10:09:58.481Z,81.43
2022-12-22T10:10:30.549Z,83.49
2022-12-22T10:11:29.496Z,85.03
2022-12-22T10:12:29.484Z,84.92
2022-12-22T10:13:29.474Z,84.06
2022-12-22T10:14:29.458Z,83.96
2022-12-22T10:15:29.464Z,83.96
2022-12-22T10:16:29.513Z,84.52
2022-12-22T10:17:29.431Z,84.00
2022-12-22T10:18:29.408Z,86.83
2022-12-22T10:19:29.394Z,86.52
2022-12-22T10:20:29.376Z,86.52
2022-12-22T10:21:29.359Z,85.71
2022-12-22T10:22:29.362Z,84.78
2022-12-22T10:23:29.347Z,84.52
2022-12-22T10:24:29.334Z,85.19
2022-12-22T10:25:39.917Z,84.68
2022-12-22T10:26:31.719Z,84.37
2022-12-22T10:27:29.691Z,84.68
2022-12-22T10:28:29.277Z,85.74
2022-12-22T10:29:29.255Z,84.88
2022-12-22T10:30:29.240Z,84.68
2022-12-22T10:31:29.406Z,84.47
2022-12-22T10:32:29.219Z,84.06
2022-12-22T10:33:29.194Z,85.44
2022-12-22T10:34:29.193Z,84.06
2022-12-22T10:35:29.174Z,84.06
2022-12-22T10:36:29.222Z,83.90
2022-12-22T10:37:29.142Z,83.96
2022-12-22T10:38:29.131Z,86.32
2022-12-22T10:39:29.160Z,86.22
2022-12-22T10:40:29.106Z,86.38
2022-12-22T10:41:29.086Z,87.10
2022-12-22T10:42:29.079Z,85.77
2022-12-22T10:43:29.066Z,85.05
2022-12-22T10:44:29.062Z,85.97
2022-12-22T10:45:29.028Z,87.10
2022-12-22T10:46:29.110Z,87.04
2022-12-22T10:47:29.026Z,87.82
2022-12-22T10:48:28.991Z,88.06
2022-12-22T10:49:28.982Z,86.79
2022-12-22T10:50:28.975Z,88.12
2022-12-22T10:51:28.956Z,87.51
2022-12-22T10:52:30.900Z,87.92
2022-12-22T10:53:28.923Z,88.53
2022-12-22T10:54:28.909Z,87.41
2022-12-22T10:55:28.899Z,85.97
2022-12-22T10:56:28.881Z,88.33
2022-12-22T10:57:28.873Z,87.41
2022-12-22T10:58:28.862Z,89.15
2022-12-22T10:59:28.840Z,89.15
2022-12-22T11:00:28.830Z,89.76
2022-12-22T11:01:28.966Z,89.42
2022-12-22T11:02:29.156Z,90.17
2022-12-22T11:03:28.995Z,88.64
2022-12-22T11:04:28.782Z,89.62
2022-12-22T11:05:28.763Z,91.05
2022-12-22T11:06:28.746Z,90.37
2022-12-22T11:07:28.749Z,90.64
2022-12-22T11:08:28.721Z,89.83
2022-12-22T11:09:34.139Z,88.12
2022-12-22T11:10:29.737Z,88.64
2022-12-22T11:11:28.688Z,87.88
2022-12-22T11:12:28.673Z,88.59
2022-12-22T11:13:28.649Z,88.90
2022-12-22T11:14:28.846Z,89.21
2022-12-22T11:15:28.623Z,90.54
2022-12-22T11:16:28.661Z,89.31
2022-12-22T11:17:28.606Z,88.08
2022-12-22T11:18:28.581Z,89.00
2022-12-22T11:19:28.602Z,89.51
2022-12-22T11:20:28.556Z,89.72
2022-12-22T11:21:28.543Z,88.59
2022-12-22T11:22:28.534Z,88.18
2022-12-22T11:23:28.504Z,88.18
2022-12-22T11:24:28.496Z,89.51
2022-12-22T11:25:28.511Z,89.00
2022-12-22T11:26:28.493Z,90.34
2022-12-22T11:27:28.458Z,91.46
2022-12-22T11:28:28.449Z,90.54
2022-12-22T11:29:28.438Z,91.11
2022-12-22T11:30:28.411Z,91.36
2022-12-22T11:31:28.499Z,91.83
2022-12-22T11:32:28.386Z,90.75
2022-12-22T11:33:28.375Z,90.60
2022-12-22T11:34:28.365Z,91.46
2022-12-22T11:35:28.534Z,91.67
2022-12-22T11:36:28.336Z,91.73
2022-12-22T11:37:28.315Z,92.65
2022-12-22T11:38:28.309Z,91.46
2022-12-22T11:39:28.313Z,92.55
2022-12-22T11:40:28.277Z,90.19
2022-12-22T11:41:28.263Z,91.22
2022-12-22T11:42:28.257Z,93.10
2022-12-22T11:43:28.245Z,93.88
2022-12-22T11:44:28.240Z,94.18
2022-12-22T11:45:28.213Z,92.24
2022-12-22T11:46:28.249Z,93.47
2022-12-22T11:47:28.189Z,91.69
2022-12-22T11:48:28.183Z,93.67
2022-12-22T11:49:28.153Z,92.81
2022-12-22T11:50:59.118Z,92.14
2022-12-22T11:51:29.226Z,95.21
2022-12-22T11:52:28.118Z,92.96
2022-12-22T11:53:28.099Z,92.03
2022-12-22T11:54:28.084Z,93.88
2022-12-22T11:55:28.079Z,92.24
2022-12-22T11:56:28.073Z,94.39
2022-12-22T11:57:28.041Z,95.00
2022-12-22T11:58:28.051Z,95.57
2022-12-22T11:59:28.024Z,94.75
2022-12-22T12:00:55.700Z,96.08
2022-12-22T12:01:29.118Z,95.06
2022-12-22T12:02:28.104Z,95.78
2022-12-22T12:03:28.198Z,94.20
2022-12-22T12:04:28.087Z,96.49
2022-12-22T12:05:27.943Z,94.51
2022-12-22T12:06:27.950Z,96.75
2022-12-22T12:07:27.930Z,96.14
2022-12-22T12:08:27.891Z,96.66
2022-12-22T12:09:27.908Z,95.48
2022-12-22T12:10:27.882Z,95.59
2022-12-22T12:11:27.877Z,95.73
2022-12-22T12:12:27.852Z,97.02
2022-12-22T12:13:34.819Z,96.14
2022-12-22T12:14:28.841Z,96.25
2022-12-22T12:15:28.029Z,96.45
2022-12-22T12:16:27.863Z,96.45
2022-12-22T12:17:27.781Z,95.73
2022-12-22T12:18:27.761Z,95.84
2022-12-22T12:19:28.456Z,96.04
2022-12-22T12:20:27.734Z,94.92
2022-12-22T12:21:27.725Z,94.40
2022-12-22T12:22:27.708Z,96.04
2022-12-22T12:23:27.714Z,94.81
2022-12-22T12:24:27.688Z,95.63
2022-12-22T12:25:27.736Z,95.63
2022-12-22T12:26:27.651Z,95.73
2022-12-22T12:27:27.634Z,95.94
2022-12-22T12:28:27.622Z,96.45
2022-12-22T12:29:27.626Z,98.88
2022-12-22T12:30:38.013Z,99.10
2022-12-22T12:31:28.687Z,98.54
2022-12-22T12:32:27.591Z,98.18
2022-12-22T12:33:27.563Z,97.11
2022-12-22T12:34:27.549Z,97.89
2022-12-22T12:35:27.560Z,96.83
2022-12-22T12:36:27.517Z,95.83
2022-12-22T12:37:27.579Z,95.98
2022-12-22T12:39:05.551Z,96.37
2022-12-22T12:39:28.527Z,96.52
2022-12-22T12:40:27.472Z,96.27
2022-12-22T12:41:27.457Z,96.14
2022-12-22T12:42:27.433Z,94.31
2022-12-22T12:43:27.420Z,94.90
2022-12-22T12:44:27.404Z,96.52
2022-12-22T12:45:27.394Z,97.03
2022-12-22T12:46:27.437Z,96.04
2022-12-22T12:47:27.382Z,97.53
2022-12-22T12:48:27.368Z,97.16
2022-12-22T12:49:27.357Z,97.87
2022-12-22T12:50:27.327Z,98.06
2022-12-22T12:51:27.316Z,97.90
2022-12-22T12:52:27.304Z,96.88